Time,TemperatureF,DewpointF,PressureIn,WindDirection,WindDirectionDegrees,WindSpeedMPH,WindSpeedGustMPH,Humidity,HourlyPrecipIn,Conditions,Clouds,dailyrainin,SoftwareType,DateUTC
2013-01-12 00:01:00,45.5,44.4,30.11,WSW,253,0.0,0.0,96,0.00,,,0.18,Wunderground v.1.15,2013-01-12 05:01:00,
2013-01-12 00:02:00,45.5,44.4,30.11,WSW,253,0.0,0.0,96,0.00,,,0.18,Wunderground v.1.15,2013-01-12 05:02:00,
2013-01-12 00:03:00,45.5,44.4,30.11,WSW,253,0.0,0.0,96,0.00,,,0.18,Wunderground v.1.15,2013-01-12 05:03:00,
2013-01-12 00:04:00,45.5,44.4,30.11,WSW,253,0.0,0.0,96,0.00,,,0.18,Wunderground v.1.15,2013-01-12 05:04:00,
2013-01-12 00:09:00,45.5,44.4,30.11,WSW,253,0.0,0.0,96,0.00,,,0.00,Wunderground v.1.15,2013-01-12 05:09:00,
2013-01-12 00:14:00,45.7,44.6,30.11,WSW,253,0.0,0.0,96,0.00,,,0.00,Wunderground v.1.15,2013-01-12 05:14:00,
2013-01-12 00:20:00,45.7,44.6,30.10,WSW,253,0.0,0.0,96,0.00,,,0.00,Wunderground v.1.15,2013-01-12 05:20:00,
2013-01-12 00:26:00,45.7,44.6,30.10,WSW,253,0.0,0.0,96,0.00,,,0.00,Wunderground v.1.15,2013-01-12 05:26:00,
2013-01-12 00:31:00,45.7,44.6,30.10,WSW,253,0.0,1.0,96,0.00,,,0.00,Wunderground v.1.15,2013-01-12 05:31:00,
2013-01-12 00:37:00,45.7,44.6,30.09,WSW,253,0.0,1.0,96,0.00,,,0.00,Wunderground v.1.15,2013-01-12 05:37:00,
2013-01-12 00:42:00,45.7,44.6,30.09,WSW,253,0.0,1.0,96,0.00,,,0.00,Wunderground v.1.15,2013-01-12 05:42:00,
2013-01-12 00:48:00,45.8,44.7,30.09,WSW,253,0.0,1.0,96,0.00,,,0.00,Wunderground v.1.15,2013-01-12 05:48:00,
2013-01-12 00:54:00,45.8,44.7,30.09,WSW,253,0.0,1.0,96,0.00,,,0.00,Wunderground v.1.15,2013-01-12 05:54:00,
2013-01-12 01:00:00,45.8,44.7,30.09,WSW,253,0.0,1.0,96,0.00,,,0.00,Wunderground v.1.15,2013-01-12 06:00:00,
2013-01-12 01:06:00,45.8,44.7,30.09,WSW,253,0.0,1.0,96,0.00,,,0.00,Wunderground v.1.15,2013-01-12 06:06:00,
2013-01-12 01:12:00,45.8,44.7,30.09,WSW,253,0.0,1.0,96,0.00,,,0.00,Wunderground v.1.15,2013-01-12 06:12:00,
2013-01-12 01:17:00,45.8,44.7,30.09,WSW,253,0.0,1.0,96,0.00,,,0.00,Wunderground v.1.15,2013-01-12 06:17:00,
2013-01-12 01:23:00,45.8,44.7,30.09,WSW,253,0.0,1.0,96,0.00,,,0.00,Wunderground v.1.15,2013-01-12 06:23:00,
2013-01-12 01:28:00,46.0,44.9,30.09,WSW,253,0.0,1.0,96,0.00,,,0.00,Wunderground v.1.15,2013-01-12 06:28:00,
2013-01-12 01:34:00,46.0,44.9,30.09,WSW,253,0.0,1.0,96,0.00,,,0.00,Wunderground v.1.15,2013-01-12 06:34:00,
2013-01-12 01:40:00,46.0,44.9,30.09,WSW,253,0.0,1.0,96,0.00,,,0.00,Wunderground v.1.15,2013-01-12 06:40:00,
2013-01-12 01:46:00,46.1,45.0,30.09,WSW,253,0.0,1.0,96,0.00,,,0.00,Wunderground v.1.15,2013-01-12 06:46:00,
2013-01-12 01:52:00,46.1,45.0,30.09,WSW,253,0.0,1.0,96,0.00,,,0.00,Wunderground v.1.15,2013-01-12 06:52:00,
2013-01-12 01:57:00,46.1,45.0,30.09,WSW,253,0.0,1.0,96,0.00,,,0.00,Wunderground v.1.15,2013-01-12 06:57:00,
2013-01-12 02:03:00,46.1,45.0,30.09,WSW,253,0.0,1.0,96,0.00,,,0.00,Wunderground v.1.15,2013-01-12 07:03:00,
2013-01-12 02:08:00,46.1,45.0,30.09,WSW,253,0.0,1.0,96,0.00,,,0.00,Wunderground v.1.15,2013-01-12 07:08:00,
2013-01-12 02:14:00,46.2,45.1,30.09,WSW,253,0.0,1.0,96,0.00,,,0.00,Wunderground v.1.15,2013-01-12 07:14:00,
2013-01-12 02:20:00,46.2,45.1,30.09,WSW,253,0.0,1.0,96,0.00,,,0.00,Wunderground v.1.15,2013-01-12 07:20:00,
2013-01-12 02:26:00,46.2,45.1,30.09,WSW,253,0.0,1.0,96,0.00,,,0.00,Wunderground v.1.15,2013-01-12 07:26:00,
2013-01-12 02:32:00,46.2,45.1,30.09,WSW,253,0.0,1.0,96,0.00,,,0.00,Wunderground v.1.15,2013-01-12 07:32:00,
2013-01-12 02:37:00,46.4,45.3,30.09,WSW,253,0.0,1.0,96,0.00,,,0.00,Wunderground v.1.15,2013-01-12 07:37:00,
2013-01-12 02:43:00,46.4,45.3,30.09,WSW,253,0.0,1.0,96,0.00,,,0.00,Wunderground v.1.15,2013-01-12 07:43:00,
2013-01-12 02:48:00,46.4,45.3,30.09,WSW,253,0.0,1.0,96,0.00,,,0.00,Wunderground v.1.15,2013-01-12 07:48:00,
2013-01-12 02:54:00,46.4,45.3,30.09,WSW,253,0.0,1.0,96,0.00,,,0.00,Wunderground v.1.15,2013-01-12 07:54:00,
2013-01-12 02:59:00,46.4,45.3,30.09,WSW,253,0.0,1.0,96,0.00,,,0.00,Wunderground v.1.15,2013-01-12 07:59:00,
2013-01-12 03:05:00,46.4,45.3,30.09,WSW,253,0.0,1.0,96,0.00,,,0.00,Wunderground v.1.15,2013-01-12 08:05:00,
2013-01-12 03:10:00,46.5,45.4,30.09,WSW,253,0.0,1.0,96,0.00,,,0.00,Wunderground v.1.15,2013-01-12 08:10:00,
2013-01-12 03:16:00,46.5,45.4,30.09,WSW,253,0.0,1.0,96,0.00,,,0.00,Wunderground v.1.15,2013-01-12 08:16:00,
2013-01-12 03:22:00,46.5,45.4,30.07,WSW,253,0.0,1.0,96,0.00,,,0.00,Wunderground v.1.15,2013-01-12 08:22:00,
2013-01-12 03:27:00,46.5,45.4,30.07,WSW,253,0.0,1.0,96,0.00,,,0.00,Wunderground v.1.15,2013-01-12 08:27:00,
2013-01-12 03:33:00,46.5,45.4,30.07,WSW,253,0.0,1.0,96,0.00,,,0.00,Wunderground v.1.15,2013-01-12 08:33:00,
2013-01-12 03:38:00,46.5,45.4,30.07,WSW,253,0.0,1.0,96,0.00,,,0.00,Wunderground v.1.15,2013-01-12 08:38:00,
2013-01-12 03:44:00,46.5,45.4,30.07,WSW,253,0.0,1.0,96,0.00,,,0.00,Wunderground v.1.15,2013-01-12 08:44:00,
2013-01-12 03:49:00,46.5,45.4,30.07,WSW,253,0.0,1.0,96,0.00,,,0.00,Wunderground v.1.15,2013-01-12 08:49:00,
2013-01-12 03:55:00,46.5,45.4,30.07,WSW,253,0.0,1.0,96,0.00,,,0.00,Wunderground v.1.15,2013-01-12 08:55:00,
2013-01-12 04:00:00,46.5,45.4,30.07,WSW,253,0.0,1.0,96,0.00,,,0.00,Wunderground v.1.15,2013-01-12 09:00:00,
2013-01-12 04:06:00,46.5,45.4,30.06,WSW,253,0.0,1.0,96,0.00,,,0.00,Wunderground v.1.15,2013-01-12 09:06:00,
2013-01-12 04:12:00,46.4,45.3,30.06,WSW,253,0.0,1.0,96,0.00,,,0.00,Wunderground v.1.15,2013-01-12 09:12:00,
2013-01-12 04:17:00,46.4,45.3,30.06,WSW,253,0.0,1.0,96,0.00,,,0.00,Wunderground v.1.15,2013-01-12 09:17:00,
2013-01-12 04:23:00,46.4,45.3,30.06,WSW,253,0.0,1.0,96,0.00,,,0.00,Wunderground v.1.15,2013-01-12 09:23:00,
2013-01-12 04:28:00,46.4,45.3,30.06,WSW,253,0.0,1.0,96,0.00,,,0.00,Wunderground v.1.15,2013-01-12 09:28:00,
2013-01-12 04:34:00,46.2,45.1,30.06,WSW,253,0.0,1.0,96,0.00,,,0.00,Wunderground v.1.15,2013-01-12 09:34:00,
2013-01-12 04:39:00,46.1,44.7,30.06,WSW,253,0.0,1.0,95,0.00,,,0.00,Wunderground v.1.15,2013-01-12 09:39:00,
2013-01-12 04:45:00,45.8,44.4,30.06,WSW,253,0.0,1.0,95,0.00,,,0.00,Wunderground v.1.15,2013-01-12 09:45:00,
2013-01-12 04:50:00,45.7,44.4,30.06,WSW,253,0.0,1.0,95,0.00,,,0.00,Wunderground v.1.15,2013-01-12 09:50:00,
2013-01-12 04:56:00,45.7,44.6,30.06,WSW,253,0.0,1.0,96,0.00,,,0.00,Wunderground v.1.15,2013-01-12 09:56:00,
2013-01-12 05:01:00,45.5,44.4,30.06,WSW,253,0.0,1.0,96,0.00,,,0.00,Wunderground v.1.15,2013-01-12 10:01:00,
2013-01-12 05:07:00,45.4,44.1,30.06,WSW,253,0.0,1.0,95,0.00,,,0.00,Wunderground v.1.15,2013-01-12 10:07:00,
2013-01-12 05:12:00,45.2,43.9,30.06,WSW,253,0.0,1.0,95,0.00,,,0.00,Wunderground v.1.15,2013-01-12 10:12:00,
2013-01-12 05:18:00,45.1,43.8,30.06,WSW,253,0.0,1.0,95,0.00,,,0.00,Wunderground v.1.15,2013-01-12 10:18:00,
2013-01-12 05:23:00,44.9,43.6,30.07,WSW,253,0.0,1.0,95,0.00,,,0.00,Wunderground v.1.15,2013-01-12 10:23:00,
2013-01-12 05:29:00,44.8,43.5,30.07,WSW,253,0.0,1.0,95,0.00,,,0.00,Wunderground v.1.15,2013-01-12 10:29:00,
2013-01-12 05:34:00,44.6,43.5,30.07,WSW,253,0.0,1.0,96,0.00,,,0.00,Wunderground v.1.15,2013-01-12 10:34:00,
2013-01-12 05:40:00,44.6,43.5,30.07,WSW,253,0.0,1.0,96,0.00,,,0.00,Wunderground v.1.15,2013-01-12 10:40:00,
2013-01-12 05:46:00,44.6,43.5,30.07,WSW,253,0.0,1.0,96,0.00,,,0.00,Wunderground v.1.15,2013-01-12 10:46:00,
2013-01-12 05:51:00,44.6,43.5,30.07,WSW,253,0.0,1.0,96,0.00,,,0.00,Wunderground v.1.15,2013-01-12 10:51:00,
2013-01-12 05:57:00,44.8,43.7,30.07,WSW,253,0.0,1.0,96,0.00,,,0.00,Wunderground v.1.15,2013-01-12 10:57:00,
2013-01-12 06:03:00,44.8,43.7,30.07,WSW,253,0.0,1.0,96,0.00,,,0.00,Wunderground v.1.15,2013-01-12 11:03:00,
2013-01-12 06:08:00,44.9,43.8,30.07,WSW,253,0.0,1.0,96,0.00,,,0.00,Wunderground v.1.15,2013-01-12 11:08:00,
2013-01-12 06:14:00,44.9,43.8,30.07,WSW,253,0.0,1.0,96,0.00,,,0.00,Wunderground v.1.15,2013-01-12 11:14:00,
2013-01-12 06:19:00,44.9,43.8,30.07,WSW,253,0.0,1.0,96,0.00,,,0.00,Wunderground v.1.15,2013-01-12 11:19:00,
2013-01-12 06:25:00,45.1,44.0,30.08,WSW,253,0.0,1.0,96,0.00,,,0.00,Wunderground v.1.15,2013-01-12 11:25:00,
2013-01-12 06:31:00,45.1,44.0,30.08,WSW,253,0.0,1.0,96,0.00,,,0.00,Wunderground v.1.15,2013-01-12 11:31:00,
2013-01-12 06:36:00,45.2,44.1,30.09,WSW,253,0.0,1.0,96,0.00,,,0.00,Wunderground v.1.15,2013-01-12 11:36:00,
2013-01-12 06:42:00,45.2,44.1,30.09,WSW,253,0.0,1.0,96,0.00,,,0.00,Wunderground v.1.15,2013-01-12 11:42:00,
2013-01-12 06:47:00,45.4,44.3,30.09,WSW,253,0.0,1.0,96,0.00,,,0.00,Wunderground v.1.15,2013-01-12 11:47:00,
2013-01-12 06:53:00,45.5,44.4,30.09,WSW,253,0.0,1.0,96,0.00,,,0.00,Wunderground v.1.15,2013-01-12 11:53:00,
2013-01-12 06:58:00,45.5,44.4,30.09,WSW,253,0.0,1.0,96,0.00,,,0.00,Wunderground v.1.15,2013-01-12 11:58:00,
2013-01-12 07:04:00,45.4,44.3,30.09,WSW,253,0.0,1.0,96,0.00,,,0.00,Wunderground v.1.15,2013-01-12 12:04:00,
2013-01-12 07:09:00,45.4,44.3,30.09,WSW,253,0.0,1.0,96,0.00,,,0.00,Wunderground v.1.15,2013-01-12 12:09:00,
2013-01-12 07:15:00,45.4,44.3,30.09,WSW,253,0.0,1.0,96,0.00,,,0.00,Wunderground v.1.15,2013-01-12 12:15:00,
2013-01-12 07:21:00,45.4,44.3,30.09,WSW,253,0.0,1.0,96,0.00,,,0.00,Wunderground v.1.15,2013-01-12 12:21:00,
2013-01-12 07:26:00,45.2,44.1,30.09,WSW,253,0.0,1.0,96,0.00,,,0.00,Wunderground v.1.15,2013-01-12 12:26:00,
2013-01-12 07:32:00,45.2,44.1,30.09,WSW,253,0.0,1.0,96,0.00,,,0.00,Wunderground v.1.15,2013-01-12 12:32:00,
2013-01-12 07:38:00,45.2,44.1,30.10,WSW,253,0.0,1.0,96,0.00,,,0.00,Wunderground v.1.15,2013-01-12 12:38:00,
2013-01-12 07:44:00,45.2,44.1,30.10,WSW,253,0.0,1.0,96,0.00,,,0.00,Wunderground v.1.15,2013-01-12 12:44:00,
2013-01-12 07:50:00,45.2,44.1,30.10,WSW,253,0.0,1.0,96,0.00,,,0.00,Wunderground v.1.15,2013-01-12 12:50:00,
2013-01-12 07:55:00,45.2,44.1,30.10,WSW,253,0.0,1.0,96,0.00,,,0.00,Wunderground v.1.15,2013-01-12 12:55:00,
2013-01-12 08:01:00,45.4,44.3,30.10,WSW,253,0.0,1.0,96,0.00,,,0.00,Wunderground v.1.15,2013-01-12 13:01:00,
2013-01-12 08:06:00,45.5,44.4,30.10,WSW,253,0.0,1.0,96,0.00,,,0.00,Wunderground v.1.15,2013-01-12 13:06:00,
2013-01-12 08:12:00,45.8,44.7,30.10,WSW,253,0.0,1.0,96,0.00,,,0.00,Wunderground v.1.15,2013-01-12 13:12:00,
2013-01-12 08:18:00,46.0,44.9,30.10,WSW,253,0.0,1.0,96,0.00,,,0.00,Wunderground v.1.15,2013-01-12 13:18:00,
2013-01-12 08:23:00,46.1,45.0,30.10,WSW,253,0.0,1.0,96,0.00,,,0.00,Wunderground v.1.15,2013-01-12 13:23:00,
2013-01-12 08:29:00,46.4,45.6,30.10,WSW,253,0.0,1.0,97,0.00,,,0.00,Wunderground v.1.15,2013-01-12 13:29:00,
2013-01-12 08:34:00,46.5,45.7,30.10,WSW,253,0.0,1.0,97,0.00,,,0.00,Wunderground v.1.15,2013-01-12 13:34:00,
2013-01-12 08:40:00,46.7,45.6,30.11,WSW,253,0.0,1.0,96,0.00,,,0.00,Wunderground v.1.15,2013-01-12 13:40:00,
2013-01-12 08:45:00,46.8,45.7,30.11,WSW,253,0.0,1.0,96,0.00,,,0.00,Wunderground v.1.15,2013-01-12 13:45:00,
2013-01-12 08:51:00,47.1,46.0,30.10,WSW,253,0.0,1.0,96,0.00,,,0.00,Wunderground v.1.15,2013-01-12 13:51:00,
2013-01-12 08:56:00,47.3,46.2,30.10,WSW,253,0.0,1.0,96,0.00,,,0.00,Wunderground v.1.15,2013-01-12 13:56:00,
2013-01-12 09:02:00,47.7,46.6,30.10,WSW,253,0.0,1.0,96,0.00,,,0.00,Wunderground v.1.15,2013-01-12 14:02:00,
2013-01-12 09:08:00,48.2,47.1,30.10,NNW,344,1.0,2.0,96,0.00,,,0.00,Wunderground v.1.15,2013-01-12 14:08:00,
2013-01-12 09:13:00,48.5,47.4,30.10,North,349,1.0,1.0,96,0.00,,,0.00,Wunderground v.1.15,2013-01-12 14:13:00,
2013-01-12 09:19:00,48.6,47.5,30.10,North,349,0.0,1.0,96,0.00,,,0.00,Wunderground v.1.15,2013-01-12 14:19:00,
2013-01-12 09:24:00,48.8,47.7,30.10,North,349,0.0,1.0,96,0.00,,,0.00,Wunderground v.1.15,2013-01-12 14:24:00,
2013-01-12 09:30:00,49.2,48.1,30.10,North,349,0.0,1.0,96,0.00,,,0.00,Wunderground v.1.15,2013-01-12 14:30:00,
2013-01-12 09:35:00,49.4,48.3,30.11,North,349,0.0,1.0,96,0.00,,,0.00,Wunderground v.1.15,2013-01-12 14:35:00,
2013-01-12 09:41:00,49.6,48.5,30.11,North,349,0.0,1.0,96,0.00,,,0.00,Wunderground v.1.15,2013-01-12 14:41:00,
2013-01-12 09:47:00,50.2,49.1,30.11,North,349,0.0,1.0,96,0.00,,,0.00,Wunderground v.1.15,2013-01-12 14:47:00,
2013-01-12 09:52:00,50.7,49.6,30.11,North,349,0.0,1.0,96,0.00,,,0.00,Wunderground v.1.15,2013-01-12 14:52:00,
2013-01-12 09:58:00,50.8,49.7,30.11,North,349,0.0,1.0,96,0.00,,,0.00,Wunderground v.1.15,2013-01-12 14:58:00,
2013-01-12 10:03:00,50.8,49.7,30.11,North,349,0.0,1.0,96,0.00,,,0.00,Wunderground v.1.15,2013-01-12 15:03:00,
2013-01-12 10:09:00,51.3,50.2,30.10,North,349,0.0,1.0,96,0.00,,,0.00,Wunderground v.1.15,2013-01-12 15:09:00,
2013-01-12 10:15:00,52.0,50.9,30.10,North,350,0.0,1.0,96,0.00,,,0.00,Wunderground v.1.15,2013-01-12 15:15:00,
2013-01-12 10:21:00,52.8,51.7,30.10,North,350,0.0,1.0,96,0.00,,,0.00,Wunderground v.1.15,2013-01-12 15:21:00,
2013-01-12 10:27:00,53.5,52.4,30.10,North,350,0.0,1.0,96,0.00,,,0.00,Wunderground v.1.15,2013-01-12 15:27:00,
2013-01-12 10:32:00,53.9,52.8,30.10,North,349,0.0,1.0,96,0.00,,,0.00,Wunderground v.1.15,2013-01-12 15:32:00,
2013-01-12 10:38:00,54.2,52.8,30.10,North,350,0.0,1.0,95,0.00,,,0.00,Wunderground v.1.15,2013-01-12 15:38:00,
2013-01-12 10:43:00,54.7,53.0,30.10,North,350,0.0,1.0,94,0.00,,,0.00,Wunderground v.1.15,2013-01-12 15:43:00,
2013-01-12 10:49:00,55.0,53.0,30.10,North,349,0.0,1.0,93,0.00,,,0.00,Wunderground v.1.15,2013-01-12 15:49:00,
2013-01-12 10:54:00,55.3,53.0,30.10,South,184,0.0,1.0,92,0.00,,,0.00,Wunderground v.1.15,2013-01-12 15:54:00,
2013-01-12 11:00:00,55.7,52.8,30.10,South,184,0.0,1.0,90,0.00,,,0.00,Wunderground v.1.15,2013-01-12 16:00:00,
2013-01-12 11:05:00,56.0,52.8,30.09,South,184,0.0,1.0,89,0.00,,,0.00,Wunderground v.1.15,2013-01-12 16:05:00,
2013-01-12 11:11:00,56.6,53.4,30.09,South,185,0.0,1.0,89,0.00,,,0.00,Wunderground v.1.15,2013-01-12 16:11:00,
2013-01-12 11:17:00,57.3,53.8,30.09,WSW,244,1.0,2.0,88,0.00,,,0.00,Wunderground v.1.15,2013-01-12 16:17:00,
2013-01-12 11:22:00,58.0,54.2,30.09,SW,217,1.0,1.0,87,0.00,,,0.00,Wunderground v.1.15,2013-01-12 16:22:00,
2013-01-12 11:28:00,58.7,54.2,30.09,SW,217,0.0,1.0,85,0.00,,,0.00,Wunderground v.1.15,2013-01-12 16:28:00,
2013-01-12 11:33:00,58.6,53.8,30.09,SW,217,0.0,1.0,84,0.00,,,0.00,Wunderground v.1.15,2013-01-12 16:33:00,
2013-01-12 11:39:00,58.9,54.4,30.07,SW,217,0.0,1.0,85,0.00,,,0.00,Wunderground v.1.15,2013-01-12 16:39:00,
2013-01-12 11:45:00,59.2,54.4,30.07,SW,217,0.0,1.0,84,0.00,,,0.00,Wunderground v.1.15,2013-01-12 16:45:00,
2013-01-12 11:51:00,59.3,54.5,30.07,SW,217,0.0,1.0,84,0.00,,,0.00,Wunderground v.1.15,2013-01-12 16:51:00,
2013-01-12 11:57:00,59.5,54.7,30.07,South,185,0.0,3.0,84,0.00,,,0.00,Wunderground v.1.15,2013-01-12 16:57:00,
2013-01-12 12:02:00,59.5,54.7,30.07,South,186,0.0,1.0,84,0.00,,,0.00,Wunderground v.1.15,2013-01-12 17:02:00,
2013-01-12 12:08:00,59.5,54.7,30.07,South,186,0.0,1.0,84,0.00,,,0.00,Wunderground v.1.15,2013-01-12 17:08:00,
2013-01-12 12:14:00,59.8,54.6,30.07,South,186,0.0,1.0,83,0.00,,,0.00,Wunderground v.1.15,2013-01-12 17:14:00,
2013-01-12 12:19:00,60.1,54.9,30.07,South,186,0.0,1.0,83,0.00,,,0.00,Wunderground v.1.15,2013-01-12 17:19:00,
2013-01-12 12:25:00,60.4,54.9,30.06,South,185,0.0,2.0,82,0.00,,,0.00,Wunderground v.1.15,2013-01-12 17:25:00,
2013-01-12 12:30:00,60.4,55.2,30.06,South,185,0.0,1.0,83,0.00,,,0.00,Wunderground v.1.15,2013-01-12 17:30:00,
2013-01-12 12:36:00,60.4,55.2,30.06,South,185,0.0,1.0,83,0.00,,,0.00,Wunderground v.1.15,2013-01-12 17:36:00,
2013-01-12 12:41:00,60.5,55.3,30.06,South,185,0.0,1.0,83,0.00,,,0.00,Wunderground v.1.15,2013-01-12 17:41:00,
2013-01-12 12:47:00,60.9,55.4,30.06,South,185,0.0,1.0,82,0.00,,,0.00,Wunderground v.1.15,2013-01-12 17:47:00,
2013-01-12 12:52:00,61.2,55.7,30.05,South,185,0.0,1.0,82,0.00,,,0.00,Wunderground v.1.15,2013-01-12 17:52:00,
2013-01-12 12:58:00,61.3,55.8,30.05,South,185,0.0,1.0,82,0.00,,,0.00,Wunderground v.1.15,2013-01-12 17:58:00,
2013-01-12 13:04:00,61.6,56.0,30.05,South,185,0.0,1.0,82,0.00,,,0.00,Wunderground v.1.15,2013-01-12 18:04:00,
2013-01-12 13:09:00,61.8,56.2,30.05,South,185,0.0,1.0,82,0.00,,,0.00,Wunderground v.1.15,2013-01-12 18:09:00,
2013-01-12 13:15:00,62.0,56.4,30.05,South,185,0.0,1.0,82,0.00,,,0.00,Wunderground v.1.15,2013-01-12 18:15:00,
2013-01-12 13:20:00,62.0,56.4,30.05,South,185,0.0,1.0,82,0.00,,,0.00,Wunderground v.1.15,2013-01-12 18:20:00,
2013-01-12 13:26:00,62.1,56.5,30.05,South,185,0.0,1.0,82,0.00,,,0.00,Wunderground v.1.15,2013-01-12 18:26:00,
2013-01-12 13:31:00,62.3,56.7,30.05,South,185,0.0,1.0,82,0.00,,,0.00,Wunderground v.1.15,2013-01-12 18:31:00,
2013-01-12 13:37:00,62.4,56.8,30.04,South,185,0.0,1.0,82,0.00,,,0.00,Wunderground v.1.15,2013-01-12 18:37:00,
2013-01-12 13:42:00,62.9,57.0,30.04,South,185,0.0,1.0,81,0.00,,,0.00,Wunderground v.1.15,2013-01-12 18:42:00,
2013-01-12 13:48:00,63.9,57.6,30.04,South,184,0.0,1.0,80,0.00,,,0.00,Wunderground v.1.15,2013-01-12 18:48:00,
2013-01-12 13:54:00,65.2,57.8,30.03,South,185,0.0,1.0,77,0.00,,,0.00,Wunderground v.1.15,2013-01-12 18:54:00,
2013-01-12 13:59:00,65.8,57.3,30.03,South,185,0.0,1.0,74,0.00,,,0.00,Wunderground v.1.15,2013-01-12 18:59:00,
2013-01-12 14:05:00,66.8,57.9,30.03,South,184,0.0,1.0,73,0.00,,,0.00,Wunderground v.1.15,2013-01-12 19:05:00,
2013-01-12 14:10:00,67.1,58.2,30.03,SSW,193,0.0,2.0,73,0.00,,,0.00,Wunderground v.1.15,2013-01-12 19:10:00,
2013-01-12 14:16:00,67.6,58.2,30.03,SSE,167,1.0,3.0,72,0.00,,,0.00,Wunderground v.1.15,2013-01-12 19:16:00,
2013-01-12 14:21:00,67.8,58.1,30.02,SSE,165,1.0,1.0,71,0.00,,,0.00,Wunderground v.1.15,2013-01-12 19:21:00,
2013-01-12 14:27:00,68.1,58.3,30.02,SSE,148,1.0,2.0,71,0.00,,,0.00,Wunderground v.1.15,2013-01-12 19:27:00,
2013-01-12 14:33:00,68.8,58.2,30.02,SW,230,1.0,2.0,69,0.00,,,0.00,Wunderground v.1.15,2013-01-12 19:33:00,
2013-01-12 14:38:00,69.4,58.8,30.03,SSW,210,1.0,2.0,69,0.00,,,0.00,Wunderground v.1.15,2013-01-12 19:38:00,
2013-01-12 14:44:00,69.3,58.7,30.03,South,175,1.0,1.0,69,0.00,,,0.00,Wunderground v.1.15,2013-01-12 19:44:00,
2013-01-12 14:49:00,69.1,58.9,30.03,South,175,0.0,1.0,70,0.00,,,0.00,Wunderground v.1.15,2013-01-12 19:49:00,
2013-01-12 14:55:00,69.3,58.7,30.03,SSE,164,0.0,1.0,69,0.00,,,0.00,Wunderground v.1.15,2013-01-12 19:55:00,
2013-01-12 15:00:00,69.1,58.5,30.03,SSE,164,1.0,1.0,69,0.00,,,0.00,Wunderground v.1.15,2013-01-12 20:00:00,
2013-01-12 15:06:00,69.4,58.4,30.03,SSE,164,0.0,1.0,68,0.00,,,0.00,Wunderground v.1.15,2013-01-12 20:06:00,
2013-01-12 15:11:00,69.9,59.3,30.03,SSE,164,0.0,1.0,69,0.00,,,0.00,Wunderground v.1.15,2013-01-12 20:11:00,
2013-01-12 15:17:00,70.3,58.8,30.03,SSE,164,0.0,1.0,67,0.00,,,0.00,Wunderground v.1.15,2013-01-12 20:17:00,
2013-01-12 15:23:00,70.3,59.2,30.03,SSE,164,0.0,1.0,68,0.00,,,0.00,Wunderground v.1.15,2013-01-12 20:23:00,
2013-01-12 15:28:00,70.6,59.5,30.03,SSE,164,0.0,1.0,68,0.00,,,0.00,Wunderground v.1.15,2013-01-12 20:28:00,
2013-01-12 15:34:00,70.9,59.0,30.03,SSE,164,0.0,1.0,66,0.00,,,0.00,Wunderground v.1.15,2013-01-12 20:34:00,
2013-01-12 15:39:00,71.1,59.2,30.02,SSE,165,0.0,1.0,66,0.00,,,0.00,Wunderground v.1.15,2013-01-12 20:39:00,
2013-01-12 15:45:00,70.8,59.3,30.02,SSE,165,0.0,1.0,67,0.00,,,0.00,Wunderground v.1.15,2013-01-12 20:45:00,
2013-01-12 15:50:00,70.4,58.9,30.02,SSE,162,0.0,1.0,67,0.00,,,0.00,Wunderground v.1.15,2013-01-12 20:50:00,
2013-01-12 15:56:00,69.6,59.0,30.02,SSE,161,1.0,3.0,69,0.00,,,0.00,Wunderground v.1.15,2013-01-12 20:56:00,
2013-01-12 16:02:00,69.3,59.1,30.02,SSE,161,1.0,1.0,70,0.00,,,0.00,Wunderground v.1.15,2013-01-12 21:02:00,
2013-01-12 16:07:00,69.1,58.9,30.03,SSE,155,1.0,2.0,70,0.00,,,0.00,Wunderground v.1.15,2013-01-12 21:07:00,
2013-01-12 16:13:00,68.8,59.0,30.03,SSE,155,0.0,1.0,71,0.00,,,0.00,Wunderground v.1.15,2013-01-12 21:13:00,
2013-01-12 16:19:00,68.4,59.0,30.03,SSE,155,0.0,1.0,72,0.00,,,0.00,Wunderground v.1.15,2013-01-12 21:19:00,
2013-01-12 16:25:00,67.9,58.9,30.03,SSE,155,0.0,2.0,73,0.00,,,0.00,Wunderground v.1.15,2013-01-12 21:25:00,
2013-01-12 16:31:00,67.4,58.4,30.03,SSE,155,0.0,1.0,73,0.00,,,0.00,Wunderground v.1.15,2013-01-12 21:31:00,
2013-01-12 16:36:00,66.9,58.3,30.03,SSE,155,0.0,1.0,74,0.00,,,0.00,Wunderground v.1.15,2013-01-12 21:36:00,
2013-01-12 16:42:00,66.4,58.2,30.03,SE,136,0.0,1.0,75,0.00,,,0.00,Wunderground v.1.15,2013-01-12 21:42:00,
2013-01-12 16:47:00,66.0,58.2,30.03,SE,138,0.0,1.0,76,0.00,,,0.00,Wunderground v.1.15,2013-01-12 21:47:00,
2013-01-12 16:53:00,65.5,58.1,30.04,SE,138,0.0,1.0,77,0.00,,,0.00,Wunderground v.1.15,2013-01-12 21:53:00,
2013-01-12 16:58:00,65.0,57.6,30.04,SE,138,0.0,1.0,77,0.00,,,0.00,Wunderground v.1.15,2013-01-12 21:58:00,
2013-01-12 17:04:00,64.5,57.8,30.04,SE,138,0.0,1.0,79,0.00,,,0.00,Wunderground v.1.15,2013-01-12 22:04:00,
2013-01-12 17:10:00,64.2,57.5,30.03,SE,138,0.0,1.0,79,0.00,,,0.00,Wunderground v.1.15,2013-01-12 22:10:00,
2013-01-12 17:15:00,63.5,57.2,30.03,SE,138,0.0,1.0,80,0.00,,,0.00,Wunderground v.1.15,2013-01-12 22:15:00,
2013-01-12 17:21:00,63.1,57.5,30.04,SE,138,0.0,1.0,82,0.00,,,0.00,Wunderground v.1.15,2013-01-12 22:21:00,
2013-01-12 17:26:00,62.4,56.8,30.04,SE,138,0.0,1.0,82,0.00,,,0.00,Wunderground v.1.15,2013-01-12 22:26:00,
2013-01-12 17:32:00,62.0,56.8,30.04,SE,138,0.0,1.0,83,0.00,,,0.00,Wunderground v.1.15,2013-01-12 22:32:00,
2013-01-12 17:38:00,61.2,56.7,30.04,SE,138,0.0,1.0,85,0.00,,,0.00,Wunderground v.1.15,2013-01-12 22:38:00,
2013-01-12 17:43:00,60.7,56.2,30.04,SE,138,0.0,1.0,85,0.00,,,0.00,Wunderground v.1.15,2013-01-12 22:43:00,
2013-01-12 17:49:00,60.2,55.7,30.04,SE,138,0.0,1.0,85,0.00,,,0.00,Wunderground v.1.15,2013-01-12 22:49:00,
2013-01-12 17:55:00,59.8,55.9,30.04,SE,138,0.0,1.0,87,0.00,,,0.00,Wunderground v.1.15,2013-01-12 22:55:00,
2013-01-12 18:00:00,59.5,55.6,30.04,SE,138,0.0,1.0,87,0.00,,,0.00,Wunderground v.1.15,2013-01-12 23:00:00,
2013-01-12 18:06:00,59.2,55.3,30.04,SE,138,0.0,1.0,87,0.00,,,0.00,Wunderground v.1.15,2013-01-12 23:06:00,
2013-01-12 18:11:00,58.9,54.7,30.04,SE,138,0.0,1.0,86,0.00,,,0.00,Wunderground v.1.15,2013-01-12 23:11:00,
2013-01-12 18:17:00,58.4,54.5,30.04,SE,138,0.0,1.0,87,0.00,,,0.00,Wunderground v.1.15,2013-01-12 23:17:00,
2013-01-12 18:23:00,58.1,54.6,30.04,SE,138,0.0,1.0,88,0.00,,,0.00,Wunderground v.1.15,2013-01-12 23:23:00,
2013-01-12 18:28:00,57.8,54.3,30.04,SE,138,0.0,1.0,88,0.00,,,0.00,Wunderground v.1.15,2013-01-12 23:28:00,
2013-01-12 18:34:00,57.5,54.0,30.04,SE,138,0.0,1.0,88,0.00,,,0.00,Wunderground v.1.15,2013-01-12 23:34:00,
2013-01-12 18:40:00,57.0,53.5,30.04,SE,138,0.0,1.0,88,0.00,,,0.00,Wunderground v.1.15,2013-01-12 23:40:00,
2013-01-12 18:45:00,56.6,53.1,30.04,SE,138,0.0,1.0,88,0.00,,,0.00,Wunderground v.1.15,2013-01-12 23:45:00,
2013-01-12 18:51:00,56.3,53.1,30.05,SE,138,0.0,1.0,89,0.00,,,0.00,Wunderground v.1.15,2013-01-12 23:51:00,
2013-01-12 18:57:00,55.9,52.7,30.05,SE,138,0.0,1.0,89,0.00,,,0.00,Wunderground v.1.15,2013-01-12 23:57:00,
2013-01-12 19:02:00,55.6,52.4,30.05,SE,138,0.0,1.0,89,0.00,,,0.00,Wunderground v.1.15,2013-01-13 00:02:00,
2013-01-12 19:08:00,55.1,51.9,30.06,SE,138,0.0,1.0,89,0.00,,,0.00,Wunderground v.1.15,2013-01-13 00:08:00,
2013-01-12 19:14:00,54.8,51.9,30.06,SE,138,0.0,1.0,90,0.00,,,0.00,Wunderground v.1.15,2013-01-13 00:14:00,
2013-01-12 19:19:00,54.7,51.8,30.06,SE,138,0.0,1.0,90,0.00,,,0.00,Wunderground v.1.15,2013-01-13 00:19:00,
2013-01-12 19:25:00,54.4,51.2,30.06,SE,138,0.0,1.0,89,0.00,,,0.00,Wunderground v.1.15,2013-01-13 00:25:00,
2013-01-12 19:31:00,54.1,51.2,30.06,SE,138,0.0,1.0,90,0.00,,,0.00,Wunderground v.1.15,2013-01-13 00:31:00,
2013-01-12 19:36:00,53.9,51.0,30.05,SE,138,0.0,1.0,90,0.00,,,0.00,Wunderground v.1.15,2013-01-13 00:36:00,
2013-01-12 19:42:00,53.8,50.9,30.05,SE,138,0.0,1.0,90,0.00,,,0.00,Wunderground v.1.15,2013-01-13 00:42:00,
2013-01-12 19:47:00,53.6,50.7,30.05,SE,138,0.0,1.0,90,0.00,,,0.00,Wunderground v.1.15,2013-01-13 00:47:00,
2013-01-12 19:53:00,53.5,50.6,30.06,SE,138,0.0,1.0,90,0.00,,,0.00,Wunderground v.1.15,2013-01-13 00:53:00,
2013-01-12 19:59:00,53.2,50.6,30.06,SE,138,0.0,1.0,91,0.00,,,0.00,Wunderground v.1.15,2013-01-13 00:59:00,
2013-01-12 20:04:00,53.1,50.5,30.06,SE,138,0.0,1.0,91,0.00,,,0.00,Wunderground v.1.15,2013-01-13 01:04:00,
2013-01-12 20:10:00,53.1,50.5,30.06,SE,138,0.0,1.0,91,0.00,,,0.00,Wunderground v.1.15,2013-01-13 01:10:00,
2013-01-12 20:16:00,53.1,50.5,30.06,SE,138,0.0,1.0,91,0.00,,,0.00,Wunderground v.1.15,2013-01-13 01:16:00,
2013-01-12 20:22:00,52.9,50.6,30.05,SE,138,0.0,1.0,92,0.00,,,0.00,Wunderground v.1.15,2013-01-13 01:22:00,
2013-01-12 20:28:00,53.1,50.8,30.05,SE,138,0.0,1.0,92,0.00,,,0.00,Wunderground v.1.15,2013-01-13 01:28:00,
2013-01-12 20:34:00,53.1,50.8,30.05,SE,138,0.0,1.0,92,0.00,,,0.00,Wunderground v.1.15,2013-01-13 01:34:00,
2013-01-12 20:40:00,53.1,50.8,30.05,SE,138,0.0,1.0,92,0.00,,,0.00,Wunderground v.1.15,2013-01-13 01:40:00,
2013-01-12 20:45:00,52.9,50.6,30.05,SE,138,0.0,1.0,92,0.00,,,0.00,Wunderground v.1.15,2013-01-13 01:45:00,
2013-01-12 20:51:00,52.9,50.9,30.05,SE,138,0.0,1.0,93,0.00,,,0.00,Wunderground v.1.15,2013-01-13 01:51:00,
2013-01-12 20:56:00,52.9,50.9,30.05,SE,138,0.0,1.0,93,0.00,,,0.00,Wunderground v.1.15,2013-01-13 01:56:00,
2013-01-12 21:02:00,53.1,51.1,30.05,SE,138,0.0,1.0,93,0.00,,,0.00,Wunderground v.1.15,2013-01-13 02:02:00,
2013-01-12 21:08:00,53.2,51.2,30.05,SE,138,0.0,1.0,93,0.00,,,0.00,Wunderground v.1.15,2013-01-13 02:08:00,
2013-01-12 21:14:00,53.2,51.2,30.05,SE,138,0.0,1.0,93,0.00,,,0.00,Wunderground v.1.15,2013-01-13 02:14:00,
2013-01-12 21:19:00,53.1,51.1,30.05,SE,138,0.0,1.0,93,0.00,,,0.00,Wunderground v.1.15,2013-01-13 02:19:00,
2013-01-12 21:25:00,53.1,51.1,30.04,SE,138,0.0,1.0,93,0.00,,,0.00,Wunderground v.1.15,2013-01-13 02:25:00,
2013-01-12 21:31:00,53.1,51.4,30.04,SE,138,0.0,1.0,94,0.00,,,0.00,Wunderground v.1.15,2013-01-13 02:31:00,
2013-01-12 21:36:00,53.1,51.4,30.04,SE,138,0.0,1.0,94,0.00,,,0.00,Wunderground v.1.15,2013-01-13 02:36:00,
2013-01-12 21:42:00,53.2,51.5,30.04,SE,138,0.0,1.0,94,0.00,,,0.00,Wunderground v.1.15,2013-01-13 02:42:00,
2013-01-12 21:48:00,53.1,51.4,30.04,SE,138,0.0,1.0,94,0.00,,,0.00,Wunderground v.1.15,2013-01-13 02:48:00,
2013-01-12 21:53:00,52.9,50.9,30.04,SE,138,0.0,1.0,93,0.00,,,0.00,Wunderground v.1.15,2013-01-13 02:53:00,
2013-01-12 21:59:00,52.9,51.2,30.04,SE,138,0.0,1.0,94,0.00,,,0.00,Wunderground v.1.15,2013-01-13 02:59:00,
2013-01-12 22:05:00,52.9,51.2,30.04,SE,138,0.0,1.0,94,0.00,,,0.00,Wunderground v.1.15,2013-01-13 03:05:00,
2013-01-12 22:10:00,52.8,51.1,30.04,SE,138,0.0,1.0,94,0.00,,,0.00,Wunderground v.1.15,2013-01-13 03:10:00,
2013-01-12 22:16:00,52.8,51.1,30.04,SE,138,0.0,1.0,94,0.00,,,0.00,Wunderground v.1.15,2013-01-13 03:16:00,
2013-01-12 22:21:00,52.6,50.9,30.03,SE,138,0.0,1.0,94,0.00,,,0.00,Wunderground v.1.15,2013-01-13 03:21:00,
2013-01-12 22:27:00,52.3,50.6,30.03,SE,138,0.0,1.0,94,0.00,,,0.00,Wunderground v.1.15,2013-01-13 03:27:00,
2013-01-12 22:32:00,52.2,50.5,30.03,SE,138,0.0,1.0,94,0.00,,,0.00,Wunderground v.1.15,2013-01-13 03:32:00,
2013-01-12 22:38:00,51.9,50.2,30.03,SE,138,0.0,1.0,94,0.00,,,0.00,Wunderground v.1.15,2013-01-13 03:38:00,
2013-01-12 22:44:00,51.6,49.9,30.03,SE,138,0.0,1.0,94,0.00,,,0.00,Wunderground v.1.15,2013-01-13 03:44:00,
2013-01-12 22:49:00,51.4,49.7,30.03,SE,138,0.0,1.0,94,0.00,,,0.00,Wunderground v.1.15,2013-01-13 03:49:00,
2013-01-12 22:55:00,51.3,49.6,30.03,SE,138,0.0,1.0,94,0.00,,,0.00,Wunderground v.1.15,2013-01-13 03:55:00,
2013-01-12 23:00:00,51.1,49.4,30.03,SE,138,0.0,1.0,94,0.00,,,0.00,Wunderground v.1.15,2013-01-13 04:00:00,
2013-01-12 23:06:00,50.7,48.7,30.03,SE,138,0.0,1.0,93,0.00,,,0.00,Wunderground v.1.15,2013-01-13 04:06:00,
2013-01-12 23:12:00,50.5,48.8,30.03,SE,138,0.0,1.0,94,0.00,,,0.00,Wunderground v.1.15,2013-01-13 04:12:00,
2013-01-12 23:17:00,50.4,48.7,30.03,SE,138,0.0,1.0,94,0.00,,,0.00,Wunderground v.1.15,2013-01-13 04:17:00,
2013-01-12 23:23:00,50.1,48.4,30.03,SE,138,0.0,1.0,94,0.00,,,0.00,Wunderground v.1.15,2013-01-13 04:23:00,
2013-01-12 23:28:00,49.8,48.1,30.03,SE,138,0.0,1.0,94,0.00,,,0.00,Wunderground v.1.15,2013-01-13 04:28:00,
2013-01-12 23:34:00,49.6,47.9,30.03,SE,138,0.0,1.0,94,0.00,,,0.00,Wunderground v.1.15,2013-01-13 04:34:00,
2013-01-12 23:40:00,49.5,47.8,30.03,SE,138,0.0,1.0,94,0.00,,,0.00,Wunderground v.1.15,2013-01-13 04:40:00,
2013-01-12 23:45:00,49.5,47.8,30.03,SE,138,0.0,1.0,94,0.00,,,0.00,Wunderground v.1.15,2013-01-13 04:45:00,
2013-01-12 23:51:00,49.4,47.7,30.03,SE,138,0.0,1.0,94,0.00,,,0.00,Wunderground v.1.15,2013-01-13 04:51:00,
2013-01-12 23:57:00,49.4,47.7,30.03,SE,138,0.0,1.0,94,0.00,,,0.00,Wunderground v.1.15,2013-01-13 04:57:00,